Time;durP1;ratioP1;P1;durP2;ratioP2;P2;SDS_P1;SDS_P2;PMS_P1;PMS_P2;Temp;Humidity;BMP_temperature;BMP_pressure;BME280_temperature;BME280_humidity;BME280_pressure;Samples;Min_cycle;Max_cycle;Signal;HPM_P1;HPM_P2
2022/10/16 00:01:19;;;;;;;3.40;1.77;;;;;;;;;;5024620;28;20303;-83
2022/10/16 00:03:46;;;;;;;5.40;2.00;;;;;;;;;;5017294;28;21426;-83
2022/10/16 00:06:12;;;;;;;3.63;2.00;;;;;;;;;;5018495;28;20131;-83
2022/10/16 00:08:38;;;;;;;3.33;1.85;;;;;;;;;;5018599;28;20037;-83
2022/10/16 00:11:07;;;;;;;2.95;1.88;;;;;;;;;;5018085;28;20037;-83
2022/10/16 00:13:34;;;;;;;3.42;1.90;;;;;;;;;;5015471;28;20053;-83
2022/10/16 00:16:01;;;;;;;5.70;2.30;;;;;;;;;;5018691;28;20072;-83
2022/10/16 00:18:27;;;;;;;4.05;1.88;;;;;;;;;;5026230;28;20087;-84
2022/10/16 00:20:53;;;;;;;3.60;2.10;;;;;;;;;;5017161;28;20034;-82
2022/10/16 00:23:19;;;;;;;5.32;2.10;;;;;;;;;;5019815;28;20426;-83
2022/10/16 00:25:44;;;;;;;3.22;1.95;;;;;;;;;;5010517;28;20105;-83
2022/10/16 00:28:10;;;;;;;3.58;1.98;;;;;;;;;;5016189;28;20112;-83
2022/10/16 00:30:38;;;;;;;4.43;1.92;;;;;;;;;;5016090;28;20651;-83
2022/10/16 00:33:03;;;;;;;4.68;1.98;;;;;;;;;;5016217;28;20129;-83
2022/10/16 00:35:30;;;;;;;5.25;2.28;;;;;;;;;;5014125;28;20116;-84
2022/10/16 00:37:56;;;;;;;3.28;1.95;;;;;;;;;;5008917;28;21654;-83
2022/10/16 00:40:21;;;;;;;5.03;2.08;;;;;;;;;;5019563;28;20029;-83
2022/10/16 00:42:46;;;;;;;4.32;2.17;;;;;;;;;;5022206;28;20022;-83
2022/10/16 00:45:12;;;;;;;3.92;2.22;;;;;;;;;;5008225;28;20148;-83
2022/10/16 00:47:42;;;;;;;9.50;3.40;;;;;;;;;;5017872;28;20026;-83
2022/10/16 00:50:09;;;;;;;5.35;2.83;;;;;;;;;;5021172;28;20161;-83
2022/10/16 00:52:34;;;;;;;5.90;2.33;;;;;;;;;;5018006;28;20036;-83
2022/10/16 00:55:03;;;;;;;3.95;2.42;;;;;;;;;;5012554;28;21345;-83
2022/10/16 00:57:28;;;;;;;5.10;2.33;;;;;;;;;;5007758;28;20026;-83
2022/10/16 00:59:54;;;;;;;3.80;2.10;;;;;;;;;;5011947;28;20033;-83
2022/10/16 01:02:19;;;;;;;4.07;2.30;;;;;;;;;;5019702;28;20037;-83
2022/10/16 01:04:52;;;;;;;5.18;2.30;;;;;;;;;;5014027;28;20030;-83
2022/10/16 01:07:45;;;;;;;3.80;2.07;;;;;;;;;;5020762;28;20127;-83
2022/10/16 01:10:23;;;;;;;4.38;1.90;;;;;;;;;;5023967;28;20369;-83
2022/10/16 01:13:09;;;;;;;4.60;2.60;;;;;;;;;;5018307;28;20087;-83
2022/10/16 01:15:44;;;;;;;4.82;2.10;;;;;;;;;;5020496;28;20465;-83
2022/10/16 01:18:32;;;;;;;4.72;2.15;;;;;;;;;;5012122;28;20029;-83
2022/10/16 01:21:00;;;;;;;6.57;2.10;;;;;;;;;;5016432;28;20060;-83
2022/10/16 01:24:01;;;;;;;4.80;2.22;;;;;;;;;;5021855;28;20499;-83
2022/10/16 01:26:40;;;;;;;3.65;1.90;;;;;;;;;;5016748;28;20121;-83
2022/10/16 01:29:19;;;;;;;4.28;2.15;;;;;;;;;;5022709;28;20025;-83
2022/10/16 01:31:50;;;;;;;6.28;2.13;;;;;;;;;;5002606;28;21032;-83
2022/10/16 01:34:24;;;;;;;7.68;2.35;;;;;;;;;;5012453;28;20477;-83
2022/10/16 01:36:59;;;;;;;3.63;2.10;;;;;;;;;;5015817;28;20021;-83
2022/10/16 01:39:30;;;;;;;4.28;2.20;;;;;;;;;;5014027;28;20109;-83
2022/10/16 01:42:06;;;;;;;3.72;2.15;;;;;;;;;;5029131;28;20022;-83
2022/10/16 01:44:34;;;;;;;5.22;2.08;;;;;;;;;;5022753;28;20366;-83
2022/10/16 01:47:00;;;;;;;3.28;2.10;;;;;;;;;;5022652;28;20037;-83
2022/10/16 01:49:30;;;;;;;4.85;1.92;;;;;;;;;;5023486;28;20477;-83
2022/10/16 01:51:59;;;;;;;4.72;2.28;;;;;;;;;;5013447;28;20036;-83
2022/10/16 01:54:28;;;;;;;4.45;2.17;;;;;;;;;;5014428;28;20038;-83
2022/10/16 01:56:55;;;;;;;2.92;1.80;;;;;;;;;;5015860;28;20129;-83
2022/10/16 01:59:24;;;;;;;10.15;2.63;;;;;;;;;;5012285;28;20109;-83
2022/10/16 02:01:54;;;;;;;2.95;1.90;;;;;;;;;;5009392;28;20033;-83
2022/10/16 02:04:38;;;;;;;3.85;1.92;;;;;;;;;;5015673;28;20029;-83
2022/10/16 02:07:03;;;;;;;;;;;;;;;;;;5017470;28;20470;-83
2022/10/16 02:09:30;;;;;;;4.43;1.98;;;;;;;;;;5016927;28;20008;-83
2022/10/16 02:11:59;;;;;;;2.70;1.85;;;;;;;;;;5020975;28;20072;-83
2022/10/16 02:14:25;;;;;;;3.33;1.90;;;;;;;;;;5014335;28;20029;-83
2022/10/16 02:16:50;;;;;;;3.15;1.73;;;;;;;;;;5022585;28;20041;-83
2022/10/16 02:19:19;;;;;;;3.17;1.70;;;;;;;;;;5012079;28;20021;-83
2022/10/16 02:21:56;;;;;;;4.28;2.10;;;;;;;;;;5013894;28;20537;-83
2022/10/16 02:24:27;;;;;;;4.25;2.13;;;;;;;;;;5015084;28;20120;-83
2022/10/16 02:27:00;;;;;;;6.75;2.33;;;;;;;;;;5019447;28;20030;-83
2022/10/16 02:29:26;;;;;;;3.33;1.75;;;;;;;;;;5014536;28;20049;-83
2022/10/16 02:32:12;;;;;;;2.50;1.60;;;;;;;;;;5013038;28;20042;-83
2022/10/16 02:34:39;;;;;;;2.45;1.50;;;;;;;;;;5015762;28;20105;-83
2022/10/16 02:37:06;;;;;;;3.40;1.48;;;;;;;;;;5015689;28;20030;-83
2022/10/16 02:39:33;;;;;;;4.65;1.70;;;;;;;;;;5015556;28;20167;-83
2022/10/16 02:41:58;;;;;;;3.35;1.48;;;;;;;;;;5025205;28;20458;-83
2022/10/16 02:44:24;;;;;;;3.15;1.63;;;;;;;;;;5018757;28;20108;-83
2022/10/16 02:46:49;;;;;;;2.63;1.60;;;;;;;;;;5017172;28;20033;-83
2022/10/16 02:49:15;;;;;;;2.72;1.50;;;;;;;;;;5014907;28;20113;-83
2022/10/16 02:51:40;;;;;;;1.60;1.27;;;;;;;;;;5016096;28;20026;-83
2022/10/16 02:54:05;;;;;;;3.95;1.67;;;;;;;;;;5022170;28;20028;-83
2022/10/16 02:56:31;;;;;;;3.97;1.77;;;;;;;;;;5013029;28;21998;-83
2022/10/16 02:58:56;;;;;;;3.28;1.50;;;;;;;;;;5014595;28;20022;-83
2022/10/16 03:01:22;;;;;;;3.15;1.50;;;;;;;;;;5007877;28;20492;-83
2022/10/16 03:03:48;;;;;;;2.47;1.50;;;;;;;;;;5023421;28;20040;-83
2022/10/16 03:06:13;;;;;;;3.33;1.40;;;;;;;;;;5012120;28;20037;-83
2022/10/16 03:08:38;;;;;;;2.83;1.48;;;;;;;;;;5015087;28;20021;-83
2022/10/16 03:11:04;;;;;;;3.83;1.60;;;;;;;;;;5007983;28;20044;-83
2022/10/16 03:13:29;;;;;;;2.70;1.60;;;;;;;;;;5015771;28;20394;-83
2022/10/16 03:15:55;;;;;;;2.38;1.33;;;;;;;;;;5015522;28;20644;-83
2022/10/16 03:18:20;;;;;;;3.83;1.73;;;;;;;;;;5015323;28;20457;-83
2022/10/16 03:20:45;;;;;;;2.83;1.73;;;;;;;;;;5017412;28;20049;-83
2022/10/16 03:23:11;;;;;;;3.63;1.80;;;;;;;;;;5017345;28;20036;-83
2022/10/16 03:25:36;;;;;;;2.22;1.30;;;;;;;;;;5017290;28;20053;-83
2022/10/16 03:28:02;;;;;;;2.47;1.40;;;;;;;;;;5012640;28;20381;-83
2022/10/16 03:30:28;;;;;;;2.78;1.30;;;;;;;;;;5013988;28;20025;-83
2022/10/16 03:32:53;;;;;;;2.72;1.30;;;;;;;;;;5022120;28;20037;-83
2022/10/16 03:35:20;;;;;;;5.78;1.60;;;;;;;;;;5017560;28;20494;-83
2022/10/16 03:37:45;;;;;;;3.22;1.45;;;;;;;;;;5013703;28;20029;-83
2022/10/16 03:40:11;;;;;;;2.58;1.33;;;;;;;;;;5011419;28;20087;-83
2022/10/16 03:42:36;;;;;;;2.67;1.70;;;;;;;;;;5011160;28;20030;-83
2022/10/16 03:45:02;;;;;;;2.67;1.23;;;;;;;;;;5005731;28;20119;-83
2022/10/16 03:47:27;;;;;;;3.28;1.50;;;;;;;;;;5005952;28;20040;-83
2022/10/16 03:49:53;;;;;;;2.30;1.30;;;;;;;;;;5021567;28;20116;-83
2022/10/16 03:52:18;;;;;;;2.83;1.35;;;;;;;;;;5010789;28;20037;-83
2022/10/16 03:54:43;;;;;;;3.05;1.40;;;;;;;;;;5015770;28;20030;-83
2022/10/16 03:57:09;;;;;;;2.65;1.17;;;;;;;;;;5016971;28;20029;-83
2022/10/16 03:59:34;;;;;;;2.33;1.40;;;;;;;;;;5017512;28;20048;-83
2022/10/16 04:01:59;;;;;;;3.28;1.52;;;;;;;;;;5017503;28;20067;-83
2022/10/16 04:04:25;;;;;;;3.63;1.50;;;;;;;;;;5019224;28;20018;-83
2022/10/16 04:06:51;;;;;;;2.70;1.45;;;;;;;;;;5015905;28;20726;-83
2022/10/16 04:09:16;;;;;;;4.25;1.30;;;;;;;;;;5018078;28;20030;-83
2022/10/16 04:11:42;;;;;;;2.72;1.42;;;;;;;;;;5013055;28;20033;-83
2022/10/16 04:14:07;;;;;;;3.50;1.50;;;;;;;;;;5011265;28;20033;-83
2022/10/16 04:16:32;;;;;;;2.65;1.30;;;;;;;;;;5012745;28;20390;-83
2022/10/16 04:18:58;;;;;;;4.35;1.40;;;;;;;;;;5014804;28;20029;-83
2022/10/16 04:21:23;;;;;;;2.58;1.40;;;;;;;;;;5017180;28;20053;-83
2022/10/16 04:23:49;;;;;;;3.30;1.30;;;;;;;;;;5013974;28;20656;-84
2022/10/16 04:26:15;;;;;;;4.20;1.38;;;;;;;;;;5016619;28;20123;-83
2022/10/16 04:28:40;;;;;;;4.25;1.42;;;;;;;;;;5019880;28;20135;-83
2022/10/16 04:31:06;;;;;;;3.03;1.38;;;;;;;;;;5018838;28;20083;-83
2022/10/16 04:33:32;;;;;;;2.67;1.30;;;;;;;;;;5013206;28;20063;-83
2022/10/16 04:35:59;;;;;;;2.78;1.27;;;;;;;;;;5014852;28;20061;-83
2022/10/16 04:38:25;;;;;;;2.28;1.20;;;;;;;;;;5020257;28;20037;-83
2022/10/16 04:40:50;;;;;;;2.20;1.20;;;;;;;;;;5019710;28;20386;-83
2022/10/16 04:43:16;;;;;;;2.63;1.38;;;;;;;;;;5017517;28;20037;-83
2022/10/16 04:45:41;;;;;;;3.03;1.17;;;;;;;;;;5014150;28;20103;-83
2022/10/16 04:48:07;;;;;;;3.30;1.33;;;;;;;;;;5016828;28;20068;-83
2022/10/16 04:50:32;;;;;;;3.92;1.33;;;;;;;;;;5010870;28;20144;-83
2022/10/16 04:52:57;;;;;;;2.13;1.15;;;;;;;;;;5012609;28;20021;-83
2022/10/16 04:55:23;;;;;;;2.60;1.35;;;;;;;;;;5022406;28;20037;-83
2022/10/16 04:57:48;;;;;;;3.20;1.20;;;;;;;;;;5010193;28;20025;-83
2022/10/16 05:00:13;;;;;;;1.77;0.95;;;;;;;;;;5007510;28;20029;-83
2022/10/16 05:02:39;;;;;;;2.20;1.38;;;;;;;;;;5010551;28;20043;-83
2022/10/16 05:05:05;;;;;;;3.20;1.10;;;;;;;;;;5010532;28;20059;-83
2022/10/16 05:07:30;;;;;;;4.80;1.88;;;;;;;;;;5010722;28;20029;-83
2022/10/16 05:09:56;;;;;;;1.88;1.10;;;;;;;;;;5011113;28;20025;-83
2022/10/16 05:12:21;;;;;;;2.25;1.38;;;;;;;;;;5016390;28;20164;-83
2022/10/16 05:14:46;;;;;;;2.42;1.30;;;;;;;;;;5019361;28;20029;-83
2022/10/16 05:17:12;;;;;;;3.13;1.20;;;;;;;;;;5017343;28;20053;-83
2022/10/16 05:19:37;;;;;;;2.92;1.50;;;;;;;;;;5012172;28;20678;-83
2022/10/16 05:22:03;;;;;;;4.05;1.23;;;;;;;;;;5017286;28;20038;-83
2022/10/16 05:24:28;;;;;;;1.75;1.20;;;;;;;;;;5010142;28;20033;-83
2022/10/16 05:26:53;;;;;;;3.35;1.30;;;;;;;;;;5020470;28;20033;-83
2022/10/16 05:29:19;;;;;;;2.90;1.40;;;;;;;;;;5005814;28;20025;-83
2022/10/16 05:31:44;;;;;;;2.25;1.33;;;;;;;;;;5014792;28;20071;-83
2022/10/16 05:34:10;;;;;;;3.22;1.40;;;;;;;;;;5011160;28;20382;-83
2022/10/16 05:36:35;;;;;;;3.35;1.60;;;;;;;;;;5017597;28;20033;-83
2022/10/16 05:39:00;;;;;;;2.28;1.50;;;;;;;;;;5010812;28;20061;-83
2022/10/16 05:41:26;;;;;;;2.33;1.20;;;;;;;;;;5021060;28;20021;-83
2022/10/16 05:43:52;;;;;;;2.95;1.30;;;;;;;;;;5011462;28;20029;-83
2022/10/16 05:46:17;;;;;;;1.80;1.02;;;;;;;;;;5016449;28;20397;-83
2022/10/16 05:48:43;;;;;;;2.05;1.20;;;;;;;;;;5016118;28;20028;-83
2022/10/16 05:51:11;;;;;;;2.58;1.10;;;;;;;;;;5018265;28;20119;-83
2022/10/16 05:53:38;;;;;;;1.85;1.10;;;;;;;;;;5014693;28;20033;-83
2022/10/16 05:56:05;;;;;;;2.85;1.30;;;;;;;;;;5014596;28;20034;-83
2022/10/16 05:58:36;;;;;;;3.30;1.27;;;;;;;;;;5017838;28;20038;-83
2022/10/16 06:01:09;;;;;;;5.78;1.70;;;;;;;;;;5008738;28;20029;-83
2022/10/16 06:03:34;;;;;;;1.60;1.08;;;;;;;;;;5017442;28;20037;-83
2022/10/16 06:06:11;;;;;;;2.65;1.40;;;;;;;;;;5020443;28;20389;-83
2022/10/16 06:08:37;;;;;;;2.63;1.15;;;;;;;;;;5020972;28;20053;-83
2022/10/16 06:11:04;;;;;;;3.75;1.10;;;;;;;;;;5020826;28;20064;-83
2022/10/16 06:13:29;;;;;;;3.47;1.35;;;;;;;;;;5024060;28;20140;-83
2022/10/16 06:15:58;;;;;;;2.70;1.60;;;;;;;;;;5010776;28;20026;-83
2022/10/16 06:18:23;;;;;;;2.45;1.30;;;;;;;;;;5023453;28;20474;-83
2022/10/16 06:20:49;;;;;;;2.13;1.40;;;;;;;;;;5017454;28;20103;-83
2022/10/16 06:23:14;;;;;;;3.08;1.35;;;;;;;;;;5019306;28;20040;-83
2022/10/16 06:25:39;;;;;;;3.75;1.45;;;;;;;;;;5015421;28;20068;-83
2022/10/16 06:28:05;;;;;;;2.25;1.30;;;;;;;;;;5012960;28;20030;-83
2022/10/16 06:30:30;;;;;;;4.97;1.80;;;;;;;;;;5014455;28;20493;-83
2022/10/16 06:32:55;;;;;;;2.90;1.40;;;;;;;;;;5013509;28;20105;-83
2022/10/16 06:35:21;;;;;;;4.70;1.60;;;;;;;;;;5017135;28;20087;-83
2022/10/16 06:37:47;;;;;;;3.03;1.30;;;;;;;;;;5013531;28;20428;-83
2022/10/16 06:40:14;;;;;;;2.25;1.20;;;;;;;;;;5010651;28;20029;-83
2022/10/16 06:42:39;;;;;;;2.55;1.27;;;;;;;;;;5015492;28;20022;-83
2022/10/16 06:45:05;;;;;;;2.67;1.50;;;;;;;;;;5012464;28;20088;-83
2022/10/16 06:47:30;;;;;;;3.17;1.63;;;;;;;;;;5012522;28;20061;-83
2022/10/16 06:49:56;;;;;;;1.85;1.15;;;;;;;;;;5005700;28;20067;-83
2022/10/16 06:52:21;;;;;;;2.13;1.30;;;;;;;;;;5005436;28;20740;-83
2022/10/16 06:54:47;;;;;;;4.93;1.60;;;;;;;;;;5006990;28;20495;-83
2022/10/16 06:57:12;;;;;;;2.22;1.27;;;;;;;;;;5007409;28;20030;-83
2022/10/16 06:59:37;;;;;;;2.15;1.23;;;;;;;;;;5011955;28;20032;-83
2022/10/16 07:02:03;;;;;;;5.65;1.23;;;;;;;;;;5018614;28;20033;-83
2022/10/16 07:04:28;;;;;;;3.75;1.42;;;;;;;;;;5014063;28;20037;-83
2022/10/16 07:06:53;;;;;;;4.53;1.63;;;;;;;;;;5006884;28;20073;-83
2022/10/16 07:09:19;;;;;;;3.90;1.25;;;;;;;;;;5008698;28;20046;-83
2022/10/16 07:11:44;;;;;;;4.57;1.50;;;;;;;;;;5008755;28;20781;-83
2022/10/16 07:14:19;;;;;;;3.13;1.40;;;;;;;;;;5008137;28;20386;-83
2022/10/16 07:16:45;;;;;;;2.42;1.30;;;;;;;;;;5016025;28;20033;-83
2022/10/16 07:19:13;;;;;;;3.72;1.33;;;;;;;;;;5012704;28;20029;-83
2022/10/16 07:21:38;;;;;;;3.58;1.40;;;;;;;;;;5006984;28;20570;-83
2022/10/16 07:24:07;;;;;;;3.63;1.35;;;;;;;;;;5004422;28;20034;-83
2022/10/16 07:26:35;;;;;;;2.45;1.30;;;;;;;;;;4993516;28;20046;-83
2022/10/16 07:29:01;;;;;;;3.35;1.48;;;;;;;;;;5010770;28;20123;-83
2022/10/16 07:31:27;;;;;;;2.63;1.40;;;;;;;;;;5009619;28;20496;-83
2022/10/16 07:33:53;;;;;;;2.83;1.65;;;;;;;;;;5008924;28;20041;-83
2022/10/16 07:36:20;;;;;;;3.33;1.48;;;;;;;;;;5003120;28;20136;-83
2022/10/16 07:38:46;;;;;;;3.10;1.70;;;;;;;;;;5014032;28;20147;-83
2022/10/16 07:41:14;;;;;;;3.88;1.80;;;;;;;;;;5006833;28;20022;-83
2022/10/16 07:43:40;;;;;;;3.92;1.75;;;;;;;;;;5006593;28;20036;-83
2022/10/16 07:46:06;;;;;;;5.05;1.60;;;;;;;;;;5007463;28;20028;-83
2022/10/16 07:48:34;;;;;;;3.53;1.90;;;;;;;;;;5010351;28;20025;-83
2022/10/16 07:51:00;;;;;;;3.53;1.45;;;;;;;;;;5009281;28;20131;-83
2022/10/16 07:53:26;;;;;;;4.10;1.75;;;;;;;;;;5004533;28;20030;-83
2022/10/16 07:55:52;;;;;;;3.50;1.85;;;;;;;;;;5008870;28;20037;-83
2022/10/16 07:58:18;;;;;;;4.20;2.05;;;;;;;;;;5008891;28;20035;-83
2022/10/16 08:00:43;;;;;;;3.30;1.70;;;;;;;;;;5011038;28;20084;-84
2022/10/16 08:03:08;;;;;;;4.28;1.80;;;;;;;;;;5007180;28;20030;-83
2022/10/16 08:05:34;;;;;;;6.20;2.20;;;;;;;;;;5018681;28;20060;-83
2022/10/16 08:08:01;;;;;;;5.15;1.77;;;;;;;;;;5017257;28;20486;-83
2022/10/16 08:10:28;;;;;;;3.92;2.08;;;;;;;;;;5011426;28;20017;-83
2022/10/16 08:12:54;;;;;;;3.83;1.85;;;;;;;;;;5014035;28;20053;-83
2022/10/16 08:15:20;;;;;;;4.32;1.75;;;;;;;;;;5019131;28;20052;-83
2022/10/16 08:17:59;;;;;;;3.33;1.58;;;;;;;;;;5012371;28;20544;-83
2022/10/16 08:20:26;;;;;;;4.85;1.55;;;;;;;;;;5015283;28;20052;-83
2022/10/16 08:22:53;;;;;;;3.63;1.60;;;;;;;;;;5012620;28;20120;-83
2022/10/16 08:25:19;;;;;;;4.80;1.73;;;;;;;;;;5011891;28;20042;-83
2022/10/16 08:27:44;;;;;;;3.22;1.60;;;;;;;;;;5016012;28;20038;-83
2022/10/16 08:30:10;;;;;;;6.03;1.88;;;;;;;;;;5013975;28;20068;-83
2022/10/16 08:32:35;;;;;;;4.47;1.58;;;;;;;;;;5012844;28;20104;-83
2022/10/16 08:35:01;;;;;;;2.85;1.48;;;;;;;;;;5007519;28;20033;-83
2022/10/16 08:37:33;;;;;;;3.58;1.48;;;;;;;;;;5015429;28;20059;-83
2022/10/16 08:39:59;;;;;;;2.90;1.40;;;;;;;;;;5006408;28;20040;-84
2022/10/16 08:42:46;;;;;;;5.65;1.77;;;;;;;;;;5014928;28;20042;-83
2022/10/16 08:45:29;;;;;;;3.78;1.45;;;;;;;;;;5017138;28;20462;-84
2022/10/16 08:48:14;;;;;;;4.35;1.65;;;;;;;;;;5010357;28;20065;-83
2022/10/16 08:50:40;;;;;;;4.40;1.30;;;;;;;;;;5011424;28;20532;-83
2022/10/16 08:53:09;;;;;;;3.80;1.63;;;;;;;;;;5008562;28;20351;-83
2022/10/16 08:55:42;;;;;;;5.47;2.17;;;;;;;;;;5007371;28;21226;-83
2022/10/16 08:58:21;;;;;;;;;;;;;;;;;;5013045;28;20029;-82
2022/10/16 09:00:50;;;;;;;6.75;1.63;;;;;;;;;;5010162;28;19924;-83
2022/10/16 09:03:39;;;;;;;5.35;1.70;;;;;;;;;;5008387;28;20526;-83
2022/10/16 09:06:15;;;;;;;5.03;1.60;;;;;;;;;;5010627;28;20033;-83
2022/10/16 09:09:22;;;;;;;5.00;1.67;;;;;;;;;;5013193;28;20474;-83
2022/10/16 09:12:12;;;;;;;4.60;1.52;;;;;;;;;;5022067;28;21022;-83
2022/10/16 09:15:07;;;;;;;5.60;1.60;;;;;;;;;;5009010;28;20041;-82
2022/10/16 09:17:35;;;;;;;3.40;1.63;;;;;;;;;;5016969;28;20504;-84
2022/10/16 09:20:01;;;;;;;4.53;1.60;;;;;;;;;;5010908;28;20464;-82
2022/10/16 09:22:28;;;;;;;6.82;1.70;;;;;;;;;;5012079;28;20037;-83
2022/10/16 09:24:59;;;;;;;6.10;1.80;;;;;;;;;;5008193;28;20029;-83
2022/10/16 09:27:25;;;;;;;3.95;1.60;;;;;;;;;;5010320;28;20481;-83
2022/10/16 09:29:51;;;;;;;7.55;1.80;;;;;;;;;;5012744;28;20034;-83
2022/10/16 09:32:20;;;;;;;4.22;1.70;;;;;;;;;;5021205;28;20491;-82
2022/10/16 09:34:50;;;;;;;4.10;1.48;;;;;;;;;;5011697;28;20080;-82
2022/10/16 09:37:19;;;;;;;3.60;1.52;;;;;;;;;;5009504;28;20036;-83
2022/10/16 09:39:46;;;;;;;7.38;1.85;;;;;;;;;;5013323;28;20029;-83
2022/10/16 09:42:23;;;;;;;5.18;1.50;;;;;;;;;;5026617;28;20057;-83
2022/10/16 09:44:51;;;;;;;7.18;1.60;;;;;;;;;;5013171;28;20146;-83
2022/10/16 09:47:23;;;;;;;8.23;1.40;;;;;;;;;;5012711;28;20159;-83
2022/10/16 09:50:21;;;;;;;9.02;1.50;;;;;;;;;;5014776;28;20157;-83
2022/10/16 09:52:50;;;;;;;9.82;1.70;;;;;;;;;;5013035;28;20045;-83
2022/10/16 09:55:18;;;;;;;7.28;1.20;;;;;;;;;;5015250;28;20116;-83
2022/10/16 09:57:53;;;;;;;6.50;1.35;;;;;;;;;;5007113;28;20136;-82
2022/10/16 10:00:21;;;;;;;5.35;1.67;;;;;;;;;;5015152;28;20098;-83
2022/10/16 10:02:47;;;;;;;5.45;1.50;;;;;;;;;;5017650;28;20508;-83
2022/10/16 10:05:27;;;;;;;5.43;1.27;;;;;;;;;;5009405;28;20036;-82
2022/10/16 10:07:58;;;;;;;5.78;1.52;;;;;;;;;;5014933;28;20109;-82
2022/10/16 10:10:29;;;;;;;5.10;1.10;;;;;;;;;;5010354;28;20029;-82
2022/10/16 10:12:56;;;;;;;4.47;1.17;;;;;;;;;;5012877;28;21308;-82
2022/10/16 10:15:23;;;;;;;4.80;1.42;;;;;;;;;;5002306;28;20064;-82
2022/10/16 10:17:56;;;;;;;6.85;1.23;;;;;;;;;;5008714;28;20033;-82
2022/10/16 10:20:26;;;;;;;5.95;1.60;;;;;;;;;;5011087;28;20057;-82
2022/10/16 10:22:51;;;;;;;8.75;1.50;;;;;;;;;;5008546;28;20055;-82
2022/10/16 10:25:49;;;;;;;4.72;1.20;;;;;;;;;;5013271;28;20030;-83
2022/10/16 10:28:23;;;;;;;4.22;1.40;;;;;;;;;;5009031;28;20037;-82
2022/10/16 10:31:30;;;;;;;4.97;1.23;;;;;;;;;;5011333;28;20116;-83
2022/10/16 10:34:34;;;;;;;5.55;1.20;;;;;;;;;;5013290;28;20030;-83
2022/10/16 10:37:09;;;;;;;8.00;1.40;;;;;;;;;;5012620;28;20032;-83
2022/10/16 10:39:43;;;;;;;9.73;1.30;;;;;;;;;;5008143;28;20525;-83
2022/10/16 10:42:29;;;;;;;4.05;1.05;;;;;;;;;;5012446;28;20552;-82
2022/10/16 10:45:02;;;;;;;5.13;1.30;;;;;;;;;;5008905;28;20031;-82
2022/10/16 10:47:59;;;;;;;9.88;1.98;;;;;;;;;;5004139;28;20033;-82
2022/10/16 10:50:43;;;;;;;6.93;1.30;;;;;;;;;;5011336;28;20717;-82
2022/10/16 10:53:44;;;;;;;6.85;1.20;;;;;;;;;;5010573;28;20113;-83
2022/10/16 10:56:36;;;;;;;6.35;1.42;;;;;;;;;;5013137;28;20033;-82
2022/10/16 10:59:33;;;;;;;8.40;1.58;;;;;;;;;;5016038;28;20029;-82
2022/10/16 11:02:29;;;;;;;11.15;2.13;;;;;;;;;;5015979;28;20061;-82
2022/10/16 11:05:35;;;;;;;9.05;1.88;;;;;;;;;;5015549;28;20099;-83
2022/10/16 11:08:08;;;;;;;11.38;1.60;;;;;;;;;;5016365;28;20025;-82
2022/10/16 11:10:47;;;;;;;8.27;1.98;;;;;;;;;;5013599;28;20112;-82
2022/10/16 11:13:43;;;;;;;8.15;1.83;;;;;;;;;;5021166;28;20013;-81
2022/10/16 11:16:42;;;;;;;6.43;1.92;;;;;;;;;;5016493;28;20045;-82
2022/10/16 11:19:35;;;;;;;7.47;1.48;;;;;;;;;;5018820;28;20394;-81
2022/10/16 11:22:40;;;;;;;7.72;1.60;;;;;;;;;;5003825;28;20034;-81
2022/10/16 11:25:21;;;;;;;7.25;1.58;;;;;;;;;;5014898;28;20041;-82
2022/10/16 11:27:58;;;;;;;6.93;1.55;;;;;;;;;;5010693;28;21334;-82
2022/10/16 11:30:27;;;;;;;6.18;1.50;;;;;;;;;;5010683;28;20120;-82
2022/10/16 11:32:58;;;;;;;5.75;1.50;;;;;;;;;;5020740;28;20608;-83
2022/10/16 11:35:48;;;;;;;4.70;1.50;;;;;;;;;;5003788;28;20124;-82
2022/10/16 11:38:47;;;;;;;6.97;1.88;;;;;;;;;;5005448;28;20588;-82
2022/10/16 11:41:28;;;;;;;6.07;1.58;;;;;;;;;;5005884;28;20030;-82
2022/10/16 11:44:06;;;;;;;9.82;1.90;;;;;;;;;;5014566;28;20076;-81
2022/10/16 11:46:42;;;;;;;4.50;1.45;;;;;;;;;;5008106;28;20030;-81
2022/10/16 11:49:21;;;;;;;6.80;1.80;;;;;;;;;;5006893;28;21682;-82
2022/10/16 11:51:55;;;;;;;5.40;1.45;;;;;;;;;;5006487;28;20029;-82
2022/10/16 11:54:27;;;;;;;5.88;1.50;;;;;;;;;;5009764;28;20042;-82
2022/10/16 11:56:57;;;;;;;8.07;1.52;;;;;;;;;;5010532;28;20034;-82
2022/10/16 11:59:35;;;;;;;8.68;1.92;;;;;;;;;;5006920;28;20029;-82
2022/10/16 12:02:33;;;;;;;9.85;2.13;;;;;;;;;;5001825;28;20030;-82
2022/10/16 12:05:17;;;;;;;5.57;1.40;;;;;;;;;;5003885;28;20076;-81
2022/10/16 12:08:11;;;;;;;5.32;1.50;;;;;;;;;;5005189;28;20500;-82
2022/10/16 12:10:41;;;;;;;8.07;1.50;;;;;;;;;;5004558;28;20038;-82
2022/10/16 12:13:36;;;;;;;3.90;1.10;;;;;;;;;;5003700;28;20037;-82
2022/10/16 12:16:11;;;;;;;4.82;1.40;;;;;;;;;;5004450;28;20030;-81
2022/10/16 12:18:37;;;;;;;10.43;1.42;;;;;;;;;;5012230;28;20501;-81
2022/10/16 12:21:06;;;;;;;4.97;1.48;;;;;;;;;;5009159;28;20053;-81
2022/10/16 12:23:47;;;;;;;6.97;1.40;;;;;;;;;;5012212;28;20030;-81
2022/10/16 12:26:13;;;;;;;5.75;1.48;;;;;;;;;;5007757;28;20033;-81
2022/10/16 12:28:40;;;;;;;9.30;1.40;;;;;;;;;;5013027;28;20468;-81
2022/10/16 12:31:08;;;;;;;5.45;1.38;;;;;;;;;;5006932;28;20123;-81
2022/10/16 12:33:39;;;;;;;6.45;1.90;;;;;;;;;;5005755;28;20030;-81
2022/10/16 12:36:26;;;;;;;5.13;1.40;;;;;;;;;;5004058;28;20068;-81
2022/10/16 12:38:52;;;;;;;5.10;1.65;;;;;;;;;;5006934;28;20112;-81
2022/10/16 12:41:44;;;;;;;8.43;1.55;;;;;;;;;;5022919;28;20037;-82
2022/10/16 12:44:28;;;;;;;9.27;1.40;;;;;;;;;;5009773;28;20516;-81
2022/10/16 12:46:53;;;;;;;4.60;1.63;;;;;;;;;;5011496;28;20375;-81
2022/10/16 12:49:31;;;;;;;6.43;1.95;;;;;;;;;;5011931;28;20052;-81
2022/10/16 12:51:57;;;;;;;5.75;1.38;;;;;;;;;;5008592;28;21033;-81
2022/10/16 12:54:22;;;;;;;4.68;1.30;;;;;;;;;;5007945;28;20037;-81
2022/10/16 12:57:03;;;;;;;10.95;1.52;;;;;;;;;;5005479;28;20037;-81
2022/10/16 12:59:33;;;;;;;6.60;1.77;;;;;;;;;;5005787;28;20116;-82
2022/10/16 13:02:32;;;;;;;6.70;1.60;;;;;;;;;;5008994;28;20039;-82
2022/10/16 13:05:10;;;;;;;4.93;1.63;;;;;;;;;;5011497;28;20424;-81
2022/10/16 13:08:09;;;;;;;8.32;1.25;;;;;;;;;;4995607;28;20544;-81
2022/10/16 13:11:04;;;;;;;7.70;1.30;;;;;;;;;;5009496;28;20022;-81
2022/10/16 13:13:32;;;;;;;6.50;1.55;;;;;;;;;;5013045;28;20129;-82
2022/10/16 13:16:04;;;;;;;9.20;1.40;;;;;;;;;;5009212;28;20029;-82
2022/10/16 13:18:54;;;;;;;7.10;1.73;;;;;;;;;;5007269;28;20041;-81
2022/10/16 13:21:29;;;;;;;6.18;1.58;;;;;;;;;;5005979;28;20054;-83
2022/10/16 13:24:07;;;;;;;4.85;1.73;;;;;;;;;;5014143;28;20432;-82
2022/10/16 13:26:49;;;;;;;5.78;1.55;;;;;;;;;;5011872;28;20041;-82
2022/10/16 13:29:15;;;;;;;4.82;1.42;;;;;;;;;;5009631;28;20514;-82
2022/10/16 13:31:42;;;;;;;5.70;1.60;;;;;;;;;;5011196;28;20030;-81
2022/10/16 13:34:14;;;;;;;4.40;1.50;;;;;;;;;;5016009;28;20030;-81
2022/10/16 13:36:51;;;;;;;8.65;1.98;;;;;;;;;;5004237;28;20595;-81
2022/10/16 13:39:28;;;;;;;4.38;1.63;;;;;;;;;;5007719;28;20029;-81
2022/10/16 13:42:06;;;;;;;5.78;1.60;;;;;;;;;;5014103;28;20567;-81
2022/10/16 13:44:47;;;;;;;5.60;1.85;;;;;;;;;;5003655;28;20034;-82
2022/10/16 13:47:19;;;;;;;6.07;1.63;;;;;;;;;;5009137;28;20356;-81
2022/10/16 13:49:44;;;;;;;4.80;1.60;;;;;;;;;;5008840;28;20448;-81
2022/10/16 13:52:20;;;;;;;4.60;1.77;;;;;;;;;;5007194;28;20125;-81
2022/10/16 13:54:46;;;;;;;4.88;1.70;;;;;;;;;;5009466;28;20103;-82
2022/10/16 13:57:14;;;;;;;5.88;1.85;;;;;;;;;;5012768;28;20501;-81
2022/10/16 13:59:40;;;;;;;6.68;1.67;;;;;;;;;;5009772;28;20087;-81
2022/10/16 14:02:29;;;;;;;8.38;1.92;;;;;;;;;;5011509;28;20436;-82
2022/10/16 14:04:55;;;;;;;6.13;1.90;;;;;;;;;;5012111;28;20103;-81
2022/10/16 14:07:27;;;;;;;6.90;1.90;;;;;;;;;;5007393;28;20510;-82
2022/10/16 14:09:53;;;;;;;7.88;1.90;;;;;;;;;;5012886;28;20476;-82
2022/10/16 14:12:21;;;;;;;5.60;1.65;;;;;;;;;;5004858;28;20844;-82
2022/10/16 14:14:51;;;;;;;4.57;1.80;;;;;;;;;;5005627;28;20405;-81
2022/10/16 14:17:23;;;;;;;6.63;1.90;;;;;;;;;;5007155;28;20112;-81
2022/10/16 14:19:52;;;;;;;4.20;1.40;;;;;;;;;;5008889;28;20037;-82
2022/10/16 14:22:23;;;;;;;3.78;1.40;;;;;;;;;;5007755;28;20453;-82
2022/10/16 14:24:49;;;;;;;4.82;1.33;;;;;;;;;;5012353;28;20029;-82
2022/10/16 14:27:29;;;;;;;6.10;1.58;;;;;;;;;;5009465;28;20032;-81
2022/10/16 14:30:14;;;;;;;4.07;1.40;;;;;;;;;;5008327;28;20618;-80
2022/10/16 14:32:41;;;;;;;6.60;1.63;;;;;;;;;;5013082;28;20026;-82
2022/10/16 14:35:26;;;;;;;6.20;1.48;;;;;;;;;;5024801;28;20049;-81
2022/10/16 14:37:53;;;;;;;5.28;1.60;;;;;;;;;;5005507;28;20033;-82
2022/10/16 14:40:22;;;;;;;5.15;1.55;;;;;;;;;;5009777;28;20034;-82
2022/10/16 14:42:48;;;;;;;6.65;1.65;;;;;;;;;;5014679;28;20117;-82
2022/10/16 14:45:19;;;;;;;5.65;1.75;;;;;;;;;;4999138;28;20271;-81
2022/10/16 14:47:52;;;;;;;5.50;1.40;;;;;;;;;;5010281;28;20067;-81
2022/10/16 14:50:17;;;;;;;4.03;1.33;;;;;;;;;;5008476;28;20034;-81
2022/10/16 14:52:43;;;;;;;6.13;1.60;;;;;;;;;;5005028;28;20045;-81
2022/10/16 14:55:10;;;;;;;6.57;1.35;;;;;;;;;;5000767;28;20117;-81
2022/10/16 14:57:37;;;;;;;5.78;1.42;;;;;;;;;;5011013;28;20135;-82
2022/10/16 15:00:10;;;;;;;7.40;1.58;;;;;;;;;;5002872;28;20053;-81
2022/10/16 15:02:39;;;;;;;5.88;1.40;;;;;;;;;;5006117;28;20527;-82
2022/10/16 15:05:13;;;;;;;5.70;1.70;;;;;;;;;;5001826;28;20379;-81
2022/10/16 15:07:38;;;;;;;6.07;1.50;;;;;;;;;;5007276;28;20030;-82